Time;durP1;ratioP1;P1;durP2;ratioP2;P2;SDS_P1;SDS_P2;PMS_P1;PMS_P2;Temp;Humidity;BMP_temperature;BMP_pressure;BME280_temperature;BME280_humidity;BME280_pressure;Samples;Min_cycle;Max_cycle;Signal;HPM_P1;HPM_P2
2022/01/29 00:01:28;;;;;;;15.65;8.70;;;3.70;99.90;;;;;;5073366;28;20037;-79
2022/01/29 00:03:53;;;;;;;16.30;9.20;;;3.10;99.90;;;;;;5074661;28;20028;-78
2022/01/29 00:06:19;;;;;;;19.73;9.70;;;3.30;99.90;;;;;;5074592;28;20021;-78
2022/01/29 00:08:44;;;;;;;18.70;9.80;;;3.30;99.90;;;;;;5073105;28;20032;-78
2022/01/29 00:11:13;;;;;;;17.77;9.57;;;3.40;99.90;;;;;;5073262;28;20064;-79
2022/01/29 00:13:39;;;;;;;17.88;9.88;;;3.40;99.90;;;;;;5074795;28;20112;-79
2022/01/29 00:16:05;;;;;;;15.68;8.38;;;5.30;99.90;;;;;;5073201;28;20121;-78
2022/01/29 00:18:31;;;;;;;18.88;9.13;;;3.40;99.90;;;;;;5057469;28;20028;-79
2022/01/29 00:20:57;;;;;;;18.15;9.70;;;3.30;99.90;;;;;;5074548;28;20021;-79
2022/01/29 00:23:23;;;;;;;21.05;9.88;;;3.40;99.90;;;;;;5074411;28;20039;-79
2022/01/29 00:25:48;;;;;;;19.17;9.32;;;3.40;99.90;;;;;;5074167;28;20031;-80
2022/01/29 00:28:14;;;;;;;17.65;9.85;;;3.20;99.90;;;;;;5073804;28;20025;-78
2022/01/29 00:30:42;;;;;;;16.73;9.63;;;3.30;99.90;;;;;;5073689;28;20028;-78
2022/01/29 00:33:09;;;;;;;16.63;9.82;;;3.40;99.90;;;;;;5074014;28;20021;-78
2022/01/29 00:35:35;;;;;;;17.65;9.07;;;3.30;99.90;;;;;;5074079;28;20031;-80
2022/01/29 00:38:01;;;;;;;15.63;8.98;;;4.70;99.90;;;;;;5073684;28;20095;-80
2022/01/29 00:40:27;;;;;;;18.92;10.27;;;3.40;99.90;;;;;;5073399;28;20037;-78
2022/01/29 00:42:52;;;;;;;15.30;8.88;;;3.50;99.90;;;;;;5072849;28;20120;-78
2022/01/29 00:45:18;;;;;;;17.50;9.38;;;3.50;99.90;;;;;;5073824;28;20408;-78
2022/01/29 00:47:44;;;;;;;17.13;9.00;;;3.60;99.90;;;;;;5073418;28;20035;-79
2022/01/29 00:50:11;;;;;;;18.60;9.13;;;5.10;99.90;;;;;;5073021;28;20048;-79
2022/01/29 00:52:40;;;;;;;17.48;8.70;;;3.80;99.90;;;;;;5073758;28;20040;-79
2022/01/29 00:55:10;;;;;;;17.80;9.05;;;3.60;99.90;;;;;;5073563;28;20024;-78
2022/01/29 00:57:39;;;;;;;14.15;8.30;;;3.60;99.90;;;;;;5072220;28;20032;-78
2022/01/29 01:00:10;;;;;;;16.60;8.93;;;4.40;99.90;;;;;;5073292;28;20021;-77
2022/01/29 01:02:37;;;;;;;16.98;9.45;;;3.60;99.90;;;;;;5073513;28;20021;-78
2022/01/29 01:05:03;;;;;;;17.20;9.85;;;3.50;99.90;;;;;;5073541;28;20572;-78
2022/01/29 01:07:29;;;;;;;19.20;9.45;;;3.50;99.90;;;;;;5071981;28;20040;-78
2022/01/29 01:09:55;;;;;;;20.17;9.00;;;3.50;99.90;;;;;;5073178;28;20060;-78
2022/01/29 01:12:21;;;;;;;19.40;9.45;;;3.40;99.90;;;;;;5073525;28;20114;-78
2022/01/29 01:14:47;;;;;;;17.67;9.85;;;3.50;99.90;;;;;;5073367;28;20081;-78
2022/01/29 01:17:12;;;;;;;18.60;9.00;;;3.50;99.90;;;;;;5072989;28;20024;-78
2022/01/29 01:19:38;;;;;;;22.15;9.98;;;3.60;99.90;;;;;;5072650;28;20111;-79
2022/01/29 01:22:04;;;;;;;17.08;9.57;;;4.40;99.90;;;;;;5072929;28;20028;-77
2022/01/29 01:24:30;;;;;;;18.10;10.25;;;4.40;99.90;;;;;;5073209;28;20052;-78
2022/01/29 01:26:56;;;;;;;18.48;9.82;;;3.60;99.90;;;;;;5064807;28;20465;-78
2022/01/29 01:29:21;;;;;;;19.52;10.27;;;3.40;99.90;;;;;;5056064;28;20108;-78
2022/01/29 01:31:47;;;;;;;20.58;10.73;;;4.50;99.90;;;;;;5073026;28;20040;-77
2022/01/29 01:34:14;;;;;;;22.15;10.15;;;4.00;99.90;;;;;;5072713;28;20032;-78
2022/01/29 01:36:47;;;;;;;19.73;10.35;;;3.40;99.90;;;;;;5072825;28;20029;-79
2022/01/29 01:39:16;;;;;;;19.15;9.75;;;3.40;99.90;;;;;;5075949;28;20024;-76
2022/01/29 01:41:52;;;;;;;20.35;9.88;;;5.10;99.90;;;;;;5076321;28;20532;-78
2022/01/29 01:44:17;;;;;;;20.38;10.25;;;3.40;99.90;;;;;;5076975;28;20132;-78
2022/01/29 01:46:43;;;;;;;19.60;10.63;;;3.30;99.90;;;;;;5071492;28;20125;-77
2022/01/29 01:49:09;;;;;;;17.95;9.23;;;3.30;99.90;;;;;;5073857;28;20390;-77
2022/01/29 01:51:35;;;;;;;16.98;9.15;;;3.20;99.90;;;;;;5072620;28;20097;-79
2022/01/29 01:54:00;;;;;;;18.52;10.18;;;3.20;99.90;;;;;;5073974;28;20036;-77
2022/01/29 01:56:26;;;;;;;17.30;9.50;;;4.60;99.90;;;;;;5070826;28;20032;-78
2022/01/29 01:58:56;;;;;;;17.40;9.15;;;3.30;99.90;;;;;;5072307;28;20054;-78
2022/01/29 02:01:21;;;;;;;19.13;10.00;;;3.30;99.90;;;;;;5073114;28;20036;-79
2022/01/29 02:03:47;;;;;;;18.15;8.77;;;3.30;99.90;;;;;;5072696;28;20075;-78
2022/01/29 02:06:13;;;;;;;16.38;9.48;;;3.30;99.90;;;;;;5069384;28;20443;-77
2022/01/29 02:08:39;;;;;;;19.77;10.25;;;3.20;99.90;;;;;;5069696;28;20024;-77
2022/01/29 02:11:05;;;;;;;18.00;8.98;;;3.10;99.90;;;;;;5068115;28;20028;-78
2022/01/29 02:13:32;;;;;;;18.83;10.02;;;3.40;99.90;;;;;;5067272;28;20054;-80
2022/01/29 02:15:58;;;;;;;17.15;7.93;;;3.40;99.90;;;;;;5068287;28;20016;-78
2022/01/29 02:18:24;;;;;;;20.70;9.90;;;4.40;99.90;;;;;;5067467;28;20481;-78
2022/01/29 02:20:51;;;;;;;16.95;9.70;;;3.10;99.90;;;;;;5053385;28;20044;-77
2022/01/29 02:23:17;;;;;;;19.48;9.82;;;3.00;99.90;;;;;;5048399;28;20060;-77
2022/01/29 02:25:48;;;;;;;21.65;10.13;;;3.00;99.90;;;;;;5048367;28;20100;-78
2022/01/29 02:28:15;;;;;;;19.30;9.85;;;3.90;99.90;;;;;;5048650;28;20021;-79
2022/01/29 02:30:43;;;;;;;17.05;9.93;;;2.80;99.90;;;;;;5062241;28;20031;-79
2022/01/29 02:33:12;;;;;;;18.83;10.00;;;2.90;99.90;;;;;;5047950;28;20025;-78
2022/01/29 02:35:41;;;;;;;22.35;10.73;;;2.70;99.90;;;;;;5048269;28;20021;-81
2022/01/29 02:38:07;;;;;;;17.25;9.35;;;2.80;99.90;;;;;;5048508;28;20052;-78
2022/01/29 02:40:42;;;;;;;19.20;9.95;;;2.90;99.90;;;;;;5060972;28;20460;-79
2022/01/29 02:43:31;;;;;;;18.73;9.63;;;2.80;99.90;;;;;;5067848;28;20028;-78
2022/01/29 02:45:57;;;;;;;22.15;11.52;;;2.80;99.90;;;;;;5069463;28;20028;-78
2022/01/29 02:48:23;;;;;;;21.98;9.32;;;4.50;99.90;;;;;;5071100;28;20027;-78
2022/01/29 02:50:50;;;;;;;24.35;10.30;;;3.00;99.90;;;;;;5071337;28;20047;-78
2022/01/29 02:53:16;;;;;;;19.70;9.60;;;2.90;99.90;;;;;;5071815;28;20035;-78
2022/01/29 02:55:43;;;;;;;19.92;11.43;;;2.90;99.90;;;;;;5071687;28;20059;-77
2022/01/29 02:58:08;;;;;;;18.65;9.95;;;2.80;99.90;;;;;;5053406;28;20021;-77
2022/01/29 03:00:35;;;;;;;18.63;10.05;;;2.90;99.90;;;;;;5062200;28;20417;-78
2022/01/29 03:03:01;;;;;;;19.67;10.65;;;3.00;99.90;;;;;;5071538;28;20020;-78
2022/01/29 03:05:27;;;;;;;18.77;10.55;;;3.00;99.90;;;;;;5071428;28;20062;-79
2022/01/29 03:07:52;;;;;;;20.05;10.98;;;2.80;99.90;;;;;;5071412;28;20509;-77
2022/01/29 03:10:18;;;;;;;19.85;11.43;;;3.10;99.90;;;;;;5071000;28;20020;-78
2022/01/29 03:12:44;;;;;;;23.00;11.15;;;3.10;99.90;;;;;;5071614;28;20052;-78
2022/01/29 03:15:12;;;;;;;21.90;11.32;;;3.00;99.90;;;;;;5071530;28;20075;-78
2022/01/29 03:17:38;;;;;;;19.13;11.43;;;3.10;99.90;;;;;;5073341;28;20032;-77
2022/01/29 03:20:04;;;;;;;23.02;12.05;;;3.10;99.90;;;;;;5073472;28;20064;-78
2022/01/29 03:22:30;;;;;;;19.77;11.32;;;3.10;99.90;;;;;;5075386;28;20028;-79
2022/01/29 03:24:56;;;;;;;20.98;11.32;;;3.10;99.90;;;;;;5075589;28;20389;-77
2022/01/29 03:27:21;;;;;;;18.73;10.85;;;4.70;99.90;;;;;;5071260;28;20101;-78
2022/01/29 03:29:47;;;;;;;24.10;12.30;;;2.90;99.90;;;;;;5071405;28;20037;-78
2022/01/29 03:32:13;;;;;;;18.05;11.07;;;3.70;99.90;;;;;;5071123;28;20094;-78
2022/01/29 03:34:38;;;;;;;22.45;11.90;;;3.10;99.90;;;;;;5070893;28;20064;-81
2022/01/29 03:37:04;;;;;;;19.88;12.18;;;3.00;99.90;;;;;;5071848;28;20618;-78
2022/01/29 03:39:30;;;;;;;21.88;11.38;;;3.00;99.90;;;;;;5059432;28;20020;-78
2022/01/29 03:42:02;;;;;;;22.67;13.18;;;2.90;99.90;;;;;;5071147;28;20025;-80
2022/01/29 03:44:28;;;;;;;30.58;9.65;;;2.90;99.90;;;;;;5071689;28;20032;-78
2022/01/29 03:46:53;;;;;;;17.52;10.80;;;3.00;99.90;;;;;;5070594;28;20033;-78
2022/01/29 03:49:19;;;;;;;21.20;10.98;;;3.00;99.90;;;;;;5070514;28;20550;-80
2022/01/29 03:51:44;;;;;;;18.70;11.45;;;3.00;99.90;;;;;;5069932;28;20055;-77
2022/01/29 03:54:10;;;;;;;20.45;10.98;;;2.90;99.90;;;;;;5070575;28;20068;-77
2022/01/29 03:56:36;;;;;;;20.55;10.65;;;3.00;99.90;;;;;;5071347;28;20082;-78
2022/01/29 03:59:01;;;;;;;17.25;10.45;;;2.90;99.90;;;;;;5070103;28;20032;-78
2022/01/29 04:01:27;;;;;;;18.90;10.38;;;3.00;99.90;;;;;;5070792;28;20043;-81
2022/01/29 04:03:53;;;;;;;19.13;10.80;;;2.90;99.90;;;;;;5070828;28;20025;-77
2022/01/29 04:06:18;;;;;;;19.85;11.82;;;3.90;99.90;;;;;;5070444;28;20028;-78
2022/01/29 04:08:44;;;;;;;22.75;11.70;;;2.90;99.90;;;;;;5070693;28;20386;-78
2022/01/29 04:11:12;;;;;;;20.95;11.05;;;4.50;99.90;;;;;;5070235;28;20036;-78
2022/01/29 04:13:41;;;;;;;20.33;11.50;;;4.80;99.90;;;;;;5070298;28;20086;-77
2022/01/29 04:16:08;;;;;;;15.27;9.02;;;2.90;99.90;;;;;;5070988;28;20032;-77
2022/01/29 04:18:34;;;;;;;21.50;10.90;;;2.90;99.90;;;;;;5069909;28;20032;-77
2022/01/29 04:21:01;;;;;;;23.45;11.48;;;3.00;99.90;;;;;;5068539;28;20028;-80
2022/01/29 04:23:27;;;;;;;23.05;11.40;;;2.70;99.90;;;;;;5071016;28;20562;-78
2022/01/29 04:25:53;;;;;;;21.38;11.00;;;2.90;99.90;;;;;;5070024;28;20020;-77
2022/01/29 04:28:26;;;;;;;20.95;12.25;;;2.80;99.90;;;;;;5072678;28;20043;-77
2022/01/29 04:30:57;;;;;;;17.02;10.60;;;2.90;99.90;;;;;;5074152;28;20076;-78
2022/01/29 04:33:32;;;;;;;22.05;11.15;;;2.80;99.90;;;;;;5073110;28;20035;-76
2022/01/29 04:36:01;;;;;;;22.73;11.40;;;2.80;99.90;;;;;;5073923;28;20025;-76
2022/01/29 04:38:27;;;;;;;19.13;10.20;;;2.90;99.90;;;;;;5073008;28;20127;-78
2022/01/29 04:40:55;;;;;;;20.27;10.65;;;3.00;99.90;;;;;;5072510;28;20104;-77
2022/01/29 04:43:21;;;;;;;20.05;11.60;;;2.90;99.90;;;;;;5073887;28;20029;-78
2022/01/29 04:45:47;;;;;;;19.13;10.07;;;4.40;99.90;;;;;;5073855;28;20705;-78
2022/01/29 04:48:12;;;;;;;16.80;9.73;;;2.90;99.90;;;;;;5073539;28;20032;-77
2022/01/29 04:50:38;;;;;;;24.67;11.85;;;2.90;99.90;;;;;;5072906;28;20424;-77
2022/01/29 04:53:04;;;;;;;22.40;11.45;;;2.80;99.90;;;;;;5073909;28;20047;-77
2022/01/29 04:55:30;;;;;;;17.65;10.32;;;2.80;99.90;;;;;;5073719;28;20028;-78
2022/01/29 04:57:56;;;;;;;21.95;11.85;;;2.90;99.90;;;;;;5072158;28;20047;-78
2022/01/29 05:00:22;;;;;;;20.38;11.18;;;2.90;99.90;;;;;;5074835;28;20107;-78
2022/01/29 05:02:49;;;;;;;24.13;11.57;;;2.90;99.90;;;;;;5055277;28;20439;-78
2022/01/29 05:05:14;;;;;;;22.55;10.82;;;2.80;99.90;;;;;;5055870;28;20082;-78
2022/01/29 05:07:40;;;;;;;21.15;12.02;;;2.80;99.90;;;;;;5062149;28;20033;-79
2022/01/29 05:10:06;;;;;;;18.70;10.48;;;2.80;99.90;;;;;;5076084;28;20032;-79
2022/01/29 05:12:44;;;;;;;21.13;10.48;;;2.80;99.90;;;;;;5076843;28;20036;-79
2022/01/29 05:15:28;;;;;;;20.17;11.52;;;2.90;99.90;;;;;;5075369;28;20024;-80
2022/01/29 05:28:50;;;;;;;15.60;8.38;;;2.80;99.90;;;;;;5074269;28;20040;-78
2022/01/29 05:31:16;;;;;;;17.80;10.15;;;2.80;99.90;;;;;;5076422;28;20401;-77
2022/01/29 05:33:41;;;;;;;19.48;8.80;;;2.80;99.90;;;;;;5076659;28;20112;-78
2022/01/29 05:36:07;;;;;;;21.63;10.55;;;2.70;99.90;;;;;;5057948;28;20477;-78
2022/01/29 05:38:34;;;;;;;20.35;9.85;;;2.80;99.90;;;;;;5075310;28;20032;-79
2022/01/29 05:40:59;;;;;;;16.13;9.68;;;2.70;99.90;;;;;;5074875;28;20021;-78
2022/01/29 05:43:25;;;;;;;22.27;9.75;;;2.70;99.90;;;;;;5077358;28;20032;-78
2022/01/29 05:45:50;;;;;;;22.40;12.70;;;2.70;99.90;;;;;;5078279;28;20036;-78
2022/01/29 05:48:16;;;;;;;19.83;10.05;;;2.70;99.90;;;;;;5077383;28;20421;-78
2022/01/29 05:50:42;;;;;;;25.00;11.10;;;2.70;99.90;;;;;;5075092;28;20048;-79
2022/01/29 05:53:07;;;;;;;17.50;9.15;;;2.80;99.90;;;;;;5076197;28;20032;-78
2022/01/29 05:55:33;;;;;;;23.85;11.05;;;2.70;99.90;;;;;;5076525;28;20044;-78
2022/01/29 05:57:58;;;;;;;18.70;10.20;;;3.00;99.90;;;;;;5076967;28;20032;-79
2022/01/29 06:00:24;;;;;;;22.90;10.73;;;2.70;99.90;;;;;;5077724;28;20036;-77
2022/01/29 06:03:04;;;;;;;21.83;9.27;;;2.70;99.90;;;;;;5081974;28;20103;-77
2022/01/29 06:05:30;;;;;;;20.42;9.73;;;2.70;99.90;;;;;;5070815;28;20090;-76
2022/01/29 06:07:56;;;;;;;18.13;8.95;;;2.90;99.90;;;;;;5065301;28;20015;-76
2022/01/29 06:10:23;;;;;;;19.13;9.27;;;4.30;99.90;;;;;;5061549;28;20025;-79
2022/01/29 06:13:01;;;;;;;18.00;9.32;;;2.80;99.90;;;;;;5051154;28;20021;-79
2022/01/29 06:15:27;;;;;;;19.05;10.45;;;3.00;99.90;;;;;;5053683;28;20103;-78
2022/01/29 06:17:54;;;;;;;20.35;9.18;;;2.80;99.90;;;;;;5051603;28;20029;-79
2022/01/29 06:20:20;;;;;;;17.67;9.68;;;2.90;99.90;;;;;;5050473;28;20033;-79
2022/01/29 06:22:46;;;;;;;16.30;9.02;;;2.70;99.90;;;;;;5070398;28;20544;-79
2022/01/29 06:25:11;;;;;;;15.20;9.15;;;4.00;99.90;;;;;;5057795;28;20025;-78
2022/01/29 06:27:37;;;;;;;12.63;7.57;;;2.90;99.90;;;;;;5052189;28;20677;-78
2022/01/29 06:30:03;;;;;;;18.08;8.43;;;2.90;99.90;;;;;;5053124;28;20036;-79
2022/01/29 06:32:29;;;;;;;15.35;8.60;;;2.90;99.90;;;;;;5070854;28;20037;-78
2022/01/29 06:34:55;;;;;;;19.92;8.50;;;2.90;99.90;;;;;;5071085;28;20047;-78
2022/01/29 06:37:21;;;;;;;17.15;8.75;;;2.80;99.90;;;;;;5069392;28;20033;-79
2022/01/29 06:39:47;;;;;;;18.08;9.30;;;3.00;99.90;;;;;;5070465;28;20097;-78
2022/01/29 06:42:12;;;;;;;13.30;7.78;;;3.60;99.90;;;;;;5070763;28;20025;-77
2022/01/29 06:44:38;;;;;;;17.75;8.70;;;2.90;99.90;;;;;;5051980;28;20059;-81
2022/01/29 06:47:04;;;;;;;18.98;8.82;;;2.90;99.90;;;;;;5071436;28;20036;-79
2022/01/29 06:49:30;;;;;;;15.80;8.63;;;3.60;99.90;;;;;;5071237;28;20025;-81
2022/01/29 06:51:55;;;;;;;16.25;8.82;;;2.70;99.90;;;;;;5070088;28;20021;-79
2022/01/29 06:54:21;;;;;;;15.35;6.20;;;2.90;99.90;;;;;;5070660;28;20128;-78
2022/01/29 06:56:47;;;;;;;13.77;8.07;;;3.00;99.90;;;;;;5069047;28;20033;-79
2022/01/29 06:59:12;;;;;;;14.43;8.75;;;2.90;99.90;;;;;;5070930;28;20544;-79
2022/01/29 07:01:38;;;;;;;13.32;7.53;;;3.30;99.90;;;;;;5069501;28;20024;-78
2022/01/29 07:04:04;;;;;;;17.17;8.77;;;3.10;99.90;;;;;;5071473;28;20082;-78
2022/01/29 07:06:29;;;;;;;14.23;8.05;;;3.10;99.90;;;;;;5074604;28;20091;-80
2022/01/29 07:08:55;;;;;;;14.52;8.40;;;3.20;99.90;;;;;;5073711;28;20047;-79
2022/01/29 07:11:23;;;;;;;17.10;9.23;;;3.20;99.90;;;;;;5075386;28;20025;-79
2022/01/29 07:13:51;;;;;;;14.43;7.40;;;3.20;99.90;;;;;;5073952;28;20039;-78
2022/01/29 07:16:17;;;;;;;14.88;7.68;;;3.10;99.90;;;;;;5081612;28;20104;-78
2022/01/29 07:18:42;;;;;;;13.52;8.13;;;3.30;99.90;;;;;;5074171;28;20611;-78
2022/01/29 07:21:09;;;;;;;13.88;7.70;;;3.30;99.90;;;;;;5073397;28;20029;-78
2022/01/29 07:23:34;;;;;;;16.38;8.60;;;3.30;99.90;;;;;;5073613;28;20032;-78
2022/01/29 07:26:00;;;;;;;16.00;8.18;;;3.40;99.90;;;;;;5073845;28;20021;-77
2022/01/29 07:28:26;;;;;;;12.32;6.82;;;3.30;99.90;;;;;;5071324;28;20033;-80
2022/01/29 07:30:52;;;;;;;12.98;7.32;;;3.60;99.90;;;;;;5069524;28;20021;-77
2022/01/29 07:33:17;;;;;;;13.10;8.20;;;3.60;99.90;;;;;;5051656;28;20023;-77
2022/01/29 07:35:43;;;;;;;15.18;7.55;;;3.60;99.90;;;;;;5051449;28;20025;-77
2022/01/29 07:38:08;;;;;;;12.20;7.32;;;4.70;99.90;;;;;;5066166;28;20025;-78
2022/01/29 07:40:34;;;;;;;13.95;7.25;;;3.70;99.90;;;;;;5072683;28;20074;-79
2022/01/29 07:43:00;;;;;;;13.25;7.85;;;3.70;99.90;;;;;;5073649;28;20035;-79
2022/01/29 07:45:26;;;;;;;11.88;7.65;;;4.00;99.90;;;;;;5073963;28;20036;-78
2022/01/29 07:47:52;;;;;;;13.68;7.18;;;4.00;99.90;;;;;;5060300;28;20025;-78
2022/01/29 07:50:17;;;;;;;12.93;7.18;;;3.70;99.90;;;;;;5051870;28;20059;-76
2022/01/29 07:52:43;;;;;;;13.70;7.63;;;3.70;99.90;;;;;;5052140;28;20048;-78
2022/01/29 07:55:08;;;;;;;13.43;8.25;;;3.80;99.90;;;;;;5051824;28;20025;-79
2022/01/29 07:57:34;;;;;;;13.07;7.95;;;3.90;99.90;;;;;;5060836;28;20102;-79
2022/01/29 08:00:00;;;;;;;12.57;7.50;;;3.90;99.90;;;;;;5071449;28;20044;-77
2022/01/29 08:02:25;;;;;;;11.25;7.10;;;3.80;99.90;;;;;;5070604;28;20551;-77
2022/01/29 08:04:51;;;;;;;16.48;8.45;;;3.60;99.90;;;;;;5073286;28;20029;-79
2022/01/29 08:07:16;;;;;;;14.27;7.70;;;3.80;99.90;;;;;;5074336;28;20100;-78
2022/01/29 08:09:42;;;;;;;12.85;7.65;;;3.90;99.90;;;;;;5075105;28;20021;-78
2022/01/29 08:12:08;;;;;;;14.15;7.30;;;4.70;99.90;;;;;;5076317;28;20372;-79
2022/01/29 08:14:34;;;;;;;11.65;6.80;;;3.80;99.90;;;;;;5076106;28;20032;-79
2022/01/29 08:16:59;;;;;;;12.50;6.88;;;3.80;99.90;;;;;;5075312;28;20054;-78
2022/01/29 08:19:25;;;;;;;14.48;7.20;;;3.90;99.90;;;;;;5074414;28;20111;-79
2022/01/29 08:21:51;;;;;;;16.45;7.55;;;4.00;99.90;;;;;;5074424;28;20042;-78
2022/01/29 08:24:16;;;;;;;12.63;7.18;;;4.00;99.90;;;;;;5073768;28;20052;-78
2022/01/29 08:26:42;;;;;;;13.05;7.47;;;4.00;99.90;;;;;;5074508;28;20027;-78
2022/01/29 08:29:08;;;;;;;13.18;6.97;;;4.10;99.90;;;;;;5074206;28;20370;-79
2022/01/29 08:31:33;;;;;;;10.15;6.38;;;4.00;99.90;;;;;;5074612;28;20028;-78
2022/01/29 08:33:59;;;;;;;9.98;5.88;;;4.10;99.90;;;;;;5076032;28;20093;-78
2022/01/29 08:36:24;;;;;;;12.10;6.43;;;4.20;99.90;;;;;;5074275;28;20426;-79
2022/01/29 08:38:50;;;;;;;10.88;6.32;;;4.20;99.90;;;;;;5069644;28;20033;-79
2022/01/29 08:41:16;;;;;;;9.32;5.13;;;4.10;99.90;;;;;;5062476;28;20043;-78
2022/01/29 08:43:41;;;;;;;12.93;5.75;;;5.70;99.90;;;;;;5074840;28;20025;-78
2022/01/29 08:46:07;;;;;;;17.55;6.45;;;4.20;99.90;;;;;;5075630;28;20124;-78
2022/01/29 08:48:33;;;;;;;10.60;5.85;;;4.30;99.90;;;;;;5074567;28;20437;-78
2022/01/29 08:50:59;;;;;;;10.48;5.35;;;4.50;99.90;;;;;;5075877;28;20389;-79
2022/01/29 08:53:24;;;;;;;8.98;4.82;;;4.40;99.90;;;;;;5076354;28;20371;-79
2022/01/29 08:55:51;;;;;;;13.15;6.00;;;4.30;99.90;;;;;;5075455;28;20028;-78
2022/01/29 08:58:17;;;;;;;9.27;5.10;;;4.40;99.90;;;;;;5061300;28;20032;-80
2022/01/29 09:00:45;;;;;;;10.60;6.05;;;5.90;99.90;;;;;;5069594;28;20028;-79
2022/01/29 09:03:12;;;;;;;9.80;5.35;;;4.10;99.90;;;;;;5082494;28;20036;-80
2022/01/29 09:05:37;;;;;;;8.27;4.88;;;4.30;99.90;;;;;;5078467;28;20013;-79
2022/01/29 09:08:04;;;;;;;10.35;5.40;;;4.40;99.90;;;;;;5076536;28;20078;-79
2022/01/29 09:10:30;;;;;;;10.02;5.63;;;4.40;99.90;;;;;;5076594;28;20028;-79
2022/01/29 09:12:56;;;;;;;8.85;4.97;;;4.50;99.90;;;;;;5077538;28;20025;-78
2022/01/29 09:15:22;;;;;;;11.75;5.60;;;4.50;99.90;;;;;;5076929;28;20040;-78
2022/01/29 09:17:47;;;;;;;9.63;6.00;;;4.40;99.90;;;;;;5076722;28;20028;-79
2022/01/29 09:20:14;;;;;;;11.18;5.45;;;4.50;99.90;;;;;;5075906;28;20036;-79
2022/01/29 09:22:40;;;;;;;10.95;5.53;;;4.70;99.90;;;;;;5077729;28;20020;-79
2022/01/29 09:25:06;;;;;;;8.52;5.22;;;5.70;99.90;;;;;;5077484;28;20036;-79
2022/01/29 09:27:32;;;;;;;12.05;5.25;;;4.60;99.90;;;;;;5077848;28;20091;-79
2022/01/29 09:29:58;;;;;;;10.18;5.43;;;4.70;99.90;;;;;;5079740;28;20402;-79
2022/01/29 09:32:24;;;;;;;9.88;5.25;;;4.70;99.90;;;;;;5077360;28;20086;-80
2022/01/29 09:34:50;;;;;;;11.85;6.07;;;4.70;99.90;;;;;;5069185;28;20028;-78
2022/01/29 09:37:15;;;;;;;11.43;5.95;;;4.80;99.90;;;;;;5070070;28;20104;-78
2022/01/29 09:39:42;;;;;;;10.52;6.15;;;4.80;99.90;;;;;;5073422;28;20091;-79
2022/01/29 09:42:09;;;;;;;12.57;6.55;;;5.40;99.90;;;;;;5073796;28;20017;-78
2022/01/29 09:44:36;;;;;;;10.80;6.63;;;4.60;99.90;;;;;;5075342;28;20124;-78
2022/01/29 09:47:05;;;;;;;12.10;6.57;;;4.70;99.90;;;;;;5074811;28;20707;-80
2022/01/29 09:49:34;;;;;;;11.18;6.15;;;4.40;99.90;;;;;;5073194;28;20020;-80
2022/01/29 09:52:01;;;;;;;15.90;7.53;;;4.40;99.90;;;;;;5073288;28;20032;-79
2022/01/29 09:54:27;;;;;;;10.93;6.47;;;4.30;99.90;;;;;;5073588;28;20031;-79
2022/01/29 09:56:52;;;;;;;12.68;6.85;;;5.20;99.90;;;;;;5072243;28;20107;-78
2022/01/29 09:59:18;;;;;;;12.98;7.68;;;4.50;99.90;;;;;;5070136;28;20035;-78
2022/01/29 10:01:44;;;;;;;14.88;6.97;;;5.30;99.90;;;;;;5070938;28;20108;-78
2022/01/29 10:04:09;;;;;;;11.20;6.28;;;4.60;99.90;;;;;;5070654;28;20024;-79
2022/01/29 10:06:36;;;;;;;11.48;6.40;;;4.70;99.90;;;;;;5074432;28;20025;-79
2022/01/29 10:09:09;;;;;;;12.30;7.72;;;5.50;99.90;;;;;;5061737;28;20784;-80
2022/01/29 10:11:35;;;;;;;10.38;6.22;;;4.90;99.90;;;;;;5073761;28;20069;-79
2022/01/29 10:14:04;;;;;;;10.50;6.07;;;4.90;99.90;;;;;;5075197;28;20020;-81
2022/01/29 10:16:43;;;;;;;10.70;5.70;;;4.90;99.90;;;;;;5075052;28;20025;-79
2022/01/29 10:19:13;;;;;;;11.52;5.80;;;4.70;99.90;;;;;;5072647;28;20070;-78
2022/01/29 10:21:41;;;;;;;11.10;6.93;;;4.70;99.90;;;;;;5075791;28;20028;-80
2022/01/29 10:24:13;;;;;;;11.20;5.72;;;5.00;99.90;;;;;;5074370;28;20094;-83
2022/01/29 10:26:41;;;;;;;10.57;5.40;;;4.60;99.90;;;;;;5076250;28;20031;-79
2022/01/29 10:29:14;;;;;;;10.55;5.70;;;4.70;99.90;;;;;;5081414;28;20088;-81
2022/01/29 10:31:42;;;;;;;8.27;5.47;;;4.50;99.90;;;;;;5085780;28;20056;-82
2022/01/29 10:34:29;;;;;;;10.02;5.32;;;5.80;99.90;;;;;;5073335;28;20029;-79
2022/01/29 10:37:14;;;;;;;9.50;5.22;;;4.80;99.90;;;;;;5072852;28;20032;-80
2022/01/29 10:39:41;;;;;;;8.77;5.85;;;4.80;99.90;;;;;;5072254;28;20099;-82
2022/01/29 10:42:18;;;;;;;9.10;5.30;;;4.60;99.90;;;;;;5072023;28;20032;-77
2022/01/29 10:44:46;;;;;;;8.98;4.93;;;4.70;99.90;;;;;;5069270;28;20421;-81
2022/01/29 10:47:12;;;;;;;10.02;5.88;;;5.00;99.90;;;;;;5072558;28;20489;-82
2022/01/29 10:49:44;;;;;;;8.85;5.85;;;5.80;99.90;;;;;;5072276;28;20028;-79
2022/01/29 10:52:17;;;;;;;8.77;5.43;;;4.70;99.90;;;;;;5072139;28;20117;-80
2022/01/29 10:54:55;;;;;;;7.82;5.05;;;6.90;99.90;;;;;;5071862;28;20017;-80
2022/01/29 10:57:29;;;;;;;9.00;5.30;;;4.80;99.90;;;;;;5073784;28;20035;-82
2022/01/29 10:59:55;;;;;;;10.30;5.07;;;6.20;99.90;;;;;;5073630;28;20028;-81
2022/01/29 11:02:24;;;;;;;8.93;5.30;;;4.80;99.90;;;;;;5070094;28;20624;-79
2022/01/29 11:04:50;;;;;;;10.60;5.72;;;5.50;99.90;;;;;;5069270;28;20017;-79
2022/01/29 11:07:24;;;;;;;7.68;4.60;;;4.90;99.90;;;;;;5070932;28;20033;-80
2022/01/29 11:09:51;;;;;;;8.25;4.75;;;4.90;99.90;;;;;;5072940;28;20044;-81
2022/01/29 11:12:23;;;;;;;9.43;5.03;;;4.90;99.90;;;;;;5072189;28;20039;-78
2022/01/29 11:14:52;;;;;;;7.68;4.63;;;4.80;99.90;;;;;;5072666;28;20119;-81
2022/01/29 11:17:18;;;;;;;8.95;4.80;;;4.80;99.90;;;;;;5069643;28;20029;-81
2022/01/29 11:19:45;;;;;;;7.72;5.00;;;5.90;99.90;;;;;;5068744;28;20570;-79
2022/01/29 11:22:12;;;;;;;9.45;4.85;;;4.60;99.90;;;;;;5071329;28;20115;-81
2022/01/29 11:24:42;;;;;;;9.27;5.03;;;5.10;99.90;;;;;;5073482;28;20021;-80
2022/01/29 11:27:31;;;;;;;7.85;3.85;;;6.80;99.90;;;;;;5070308;28;20024;-80
2022/01/29 11:30:09;;;;;;;10.60;4.38;;;5.10;99.90;;;;;;5071885;28;20021;-78
2022/01/29 11:32:52;;;;;;;10.43;4.88;;;5.10;99.90;;;;;;5070511;28;20039;-78
2022/01/29 11:35:22;;;;;;;8.15;4.57;;;5.20;99.90;;;;;;5073361;28;20028;-79
2022/01/29 11:37:49;;;;;;;6.65;4.03;;;7.00;99.90;;;;;;5074869;28;20039;-80
2022/01/29 11:40:29;;;;;;;7.75;4.30;;;5.30;99.90;;;;;;5078860;28;20040;-80
2022/01/29 11:43:04;;;;;;;5.95;3.72;;;5.10;99.90;;;;;;5082367;28;20060;-79
2022/01/29 11:45:42;;;;;;;8.85;4.03;;;6.30;99.90;;;;;;5087758;28;20041;-78
2022/01/29 11:48:29;;;;;;;8.38;4.03;;;5.10;99.90;;;;;;5087896;28;20017;-79
2022/01/29 11:51:06;;;;;;;8.45;4.40;;;6.40;99.90;;;;;;5089687;28;20025;-78
2022/01/29 11:53:44;;;;;;;6.55;3.67;;;5.20;99.90;;;;;;5078495;28;20024;-79
2022/01/29 11:56:34;;;;;;;6.85;3.33;;;5.50;99.90;;;;;;5076146;28;20029;-80
2022/01/29 11:59:21;;;;;;;6.45;3.83;;;5.30;99.90;;;;;;5074024;28;20031;-80
2022/01/29 12:01:52;;;;;;;9.02;3.83;;;5.30;99.90;;;;;;5075710;28;20075;-80
2022/01/29 12:04:20;;;;;;;8.15;4.18;;;5.50;99.90;;;;;;5078716;28;20020;-79
2022/01/29 12:07:11;;;;;;;4.80;2.90;;;5.20;99.90;;;;;;5079089;28;20028;-80
2022/01/29 12:09:47;;;;;;;5.70;3.05;;;5.40;99.90;;;;;;5074665;28;20077;-80
2022/01/29 12:12:25;;;;;;;4.90;2.88;;;5.40;99.90;;;;;;5074970;28;20024;-78
2022/01/29 12:15:11;;;;;;;4.22;2.70;;;7.10;99.90;;;;;;5074096;28;20016;-77
2022/01/29 12:17:57;;;;;;;4.22;3.00;;;5.20;99.90;;;;;;5070040;28;20591;-79
2022/01/29 12:20:25;;;;;;;4.88;3.22;;;5.30;99.90;;;;;;5073561;28;20020;-80
2022/01/29 12:22:56;;;;;;;5.82;3.03;;;6.50;99.90;;;;;;5073689;28;20033;-79
2022/01/29 12:25:24;;;;;;;5.15;2.83;;;5.90;99.90;;;;;;5074066;28;20029;-77
2022/01/29 12:28:00;;;;;;;4.93;2.83;;;5.40;99.90;;;;;;5074297;28;20036;-80
2022/01/29 12:30:30;;;;;;;4.10;2.58;;;5.50;99.90;;;;;;5073888;28;20028;-79
2022/01/29 12:33:11;;;;;;;5.38;2.70;;;6.80;99.90;;;;;;5074021;28;20056;-80
2022/01/29 12:35:36;;;;;;;4.97;3.10;;;5.60;99.90;;;;;;5077412;28;20404;-81
2022/01/29 12:38:05;;;;;;;7.10;2.85;;;7.40;99.90;;;;;;5076107;28;20032;-80
2022/01/29 12:40:36;;;;;;;4.07;3.00;;;6.70;99.90;;;;;;5077505;28;20078;-79
2022/01/29 12:43:10;;;;;;;6.80;3.15;;;5.60;99.90;;;;;;5078117;28;20028;-80
2022/01/29 12:45:37;;;;;;;4.35;2.80;;;5.70;99.90;;;;;;5078241;28;20028;-80
2022/01/29 12:48:10;;;;;;;6.03;2.80;;;5.60;99.90;;;;;;5077035;28;20036;-80
2022/01/29 12:50:38;;;;;;;5.35;2.50;;;7.30;99.90;;;;;;5076373;28;20485;-80
2022/01/29 12:53:17;;;;;;;4.10;2.08;;;7.30;99.90;;;;;;5077835;28;20044;-80
2022/01/29 12:55:44;;;;;;;3.63;2.13;;;6.70;99.90;;;;;;5077998;28;20051;-81
2022/01/29 12:58:09;;;;;;;5.88;2.72;;;6.90;99.90;;;;;;5079612;28;20039;-81
2022/01/29 13:00:37;;;;;;;3.47;2.40;;;5.60;99.90;;;;;;5077461;28;20020;-81